createdAt,value
2019-04-10T00:01:45.540Z,64.00
2019-04-10T00:06:47.957Z,67.58
2019-04-10T00:11:51.145Z,61.88
2019-04-10T00:16:54.320Z,63.13
2019-04-10T00:21:57.779Z,71.62
2019-04-10T00:27:00.142Z,63.50
2019-04-10T00:32:02.365Z,61.63
2019-04-10T00:37:05.767Z,66.05
2019-04-10T00:42:08.498Z,65.40
2019-04-10T00:47:10.911Z,69.22
2019-04-10T00:52:12.957Z,69.05
2019-04-10T00:57:15.063Z,68.25
2019-04-10T01:02:17.109Z,65.42
2019-04-10T01:07:32.128Z,67.72
2019-04-10T01:12:23.655Z,69.07
2019-04-10T01:17:26.336Z,58.87
2019-04-10T01:22:28.509Z,62.15
2019-04-10T01:27:30.730Z,57.93
2019-04-10T01:32:32.882Z,59.58
2019-04-10T01:37:46.734Z,52.13
2019-04-10T01:42:39.041Z,53.45
2019-04-10T01:47:41.477Z,48.60
2019-04-10T01:52:43.648Z,50.43
2019-04-10T01:57:46.331Z,45.95
2019-04-10T02:02:50.355Z,49.88
2019-04-10T02:08:02.162Z,44.93
2019-04-10T02:12:56.993Z,43.63
2019-04-10T02:17:59.213Z,43.10
2019-04-10T02:23:01.727Z,39.00
2019-04-10T02:28:04.890Z,40.73
2019-04-10T02:33:08.348Z,37.05
2019-04-10T02:38:27.455Z,37.42
2019-04-10T02:43:16.131Z,39.05
2019-04-10T02:48:19.354Z,36.28
2019-04-10T02:53:22.076Z,36.28
2019-04-10T02:58:26.525Z,30.72
2019-04-10T03:03:29.998Z,31.50
2019-04-10T03:08:44.692Z,33.08
2019-04-10T03:13:37.945Z,33.13
2019-04-10T03:18:41.028Z,31.55
2019-04-10T03:23:43.233Z,32.50
2019-04-10T03:28:45.339Z,35.10
2019-04-10T03:34:18.820Z,26.62
2019-04-10T03:39:20.189Z,27.80
2019-04-10T03:44:22.868Z,28.62
2019-04-10T03:49:25.557Z,30.15
2019-04-10T03:54:28.040Z,33.38
2019-04-10T03:59:30.603Z,28.45
2019-04-10T04:04:33.361Z,29.27
2019-04-10T04:09:35.677Z,30.88
2019-04-10T04:14:38.734Z,28.83
2019-04-10T04:19:41.860Z,28.45
2019-04-10T04:24:44.283Z,27.07
2019-04-10T04:29:47.461Z,33.42
2019-04-10T04:34:49.844Z,29.07
2019-04-10T04:39:52.171Z,26.45
2019-04-10T04:44:54.506Z,26.57
2019-04-10T04:49:56.605Z,28.23
2019-04-10T04:54:58.704Z,31.30
2019-04-10T05:00:01.147Z,29.23
2019-04-10T05:05:04.465Z,29.87
2019-04-10T05:10:07.170Z,30.05
2019-04-10T05:15:09.573Z,30.40
2019-04-10T05:20:12.198Z,29.32
2019-04-10T05:25:14.287Z,32.42
2019-04-10T05:30:16.504Z,30.27
2019-04-10T05:35:19.297Z,29.85
2019-04-10T05:40:21.570Z,32.13
2019-04-10T05:45:23.996Z,33.08
2019-04-10T05:50:26.072Z,28.42
2019-04-10T05:55:28.879Z,31.35
2019-04-10T06:00:31.017Z,30.95
2019-04-10T06:05:34.114Z,29.23
2019-04-10T06:10:36.379Z,31.97
2019-04-10T06:15:39.145Z,30.95
2019-04-10T06:20:41.829Z,32.60
2019-04-10T06:25:43.913Z,29.42
2019-04-10T06:30:46.019Z,34.45
2019-04-10T06:35:48.966Z,44.03
2019-04-10T06:40:52.315Z,31.80
2019-04-10T06:45:54.501Z,32.63
2019-04-10T06:50:56.636Z,31.45
2019-04-10T06:55:58.670Z,33.75
2019-04-10T07:01:01.802Z,36.55
2019-04-10T07:06:11.453Z,35.73
2019-04-10T07:11:10.575Z,32.88
2019-04-10T07:16:12.742Z,34.03
2019-04-10T07:21:14.809Z,36.50
2019-04-10T07:26:22.740Z,36.77
2019-04-10T07:31:21.418Z,36.48
2019-04-10T07:36:24.529Z,34.92
2019-04-10T07:41:26.649Z,32.98
2019-04-10T07:46:28.715Z,35.58
2019-04-10T07:51:31.806Z,31.85
2019-04-10T07:56:35.369Z,39.80
2019-04-10T08:01:37.610Z,33.92
2019-04-10T08:06:39.638Z,34.20
2019-04-10T08:11:42.544Z,32.10
2019-04-10T08:16:45.555Z,32.78
2019-04-10T08:21:47.682Z,33.78
2019-04-10T08:26:49.724Z,32.33
2019-04-10T08:31:52.518Z,34.78
2019-04-10T08:36:56.489Z,30.62
2019-04-10T08:41:58.679Z,36.33
2019-04-10T08:47:00.721Z,32.15
2019-04-10T08:52:03.956Z,34.43
2019-04-10T08:57:07.322Z,37.00
2019-04-10T09:02:09.653Z,31.77
2019-04-10T09:07:11.753Z,34.98
2019-04-10T09:12:13.899Z,30.85
2019-04-10T09:17:15.983Z,34.80
2019-04-10T09:22:18.048Z,30.60
2019-04-10T09:27:21.217Z,30.27
2019-04-10T09:32:23.462Z,33.73
2019-04-10T09:37:26.127Z,29.95
2019-04-10T09:42:28.254Z,36.90
2019-04-10T09:47:30.446Z,29.92
2019-04-10T09:52:32.465Z,31.42
2019-04-10T09:57:34.653Z,29.55
2019-04-10T10:02:37.871Z,31.33
2019-04-10T10:07:41.056Z,31.60
2019-04-10T10:12:43.144Z,32.93
2019-04-10T10:17:46.603Z,30.72
2019-04-10T10:22:49.505Z,29.40
2019-04-10T10:27:51.686Z,32.05
2019-04-10T10:32:53.746Z,29.63
2019-04-10T10:37:56.874Z,33.60
2019-04-10T10:43:00.232Z,32.67
2019-04-10T10:48:03.316Z,33.02
2019-04-10T10:53:06.121Z,32.23
2019-04-10T10:58:08.312Z,28.98
2019-04-10T11:03:10.367Z,28.02
2019-04-10T11:08:13.072Z,25.23
2019-04-10T11:13:15.258Z,27.35
2019-04-10T11:18:18.133Z,27.82
2019-04-10T11:23:20.223Z,28.57
2019-04-10T11:28:28.620Z,26.65
2019-04-10T11:33:26.351Z,22.35
2019-04-10T11:38:29.056Z,23.42
2019-04-10T11:43:31.228Z,25.37
2019-04-10T11:48:34.099Z,27.13
2019-04-10T11:53:41.294Z,27.00
2019-04-10T11:58:50.718Z,21.95
2019-04-10T12:03:49.077Z,24.18
2019-04-10T12:09:08.276Z,24.12
2019-04-10T12:13:52.131Z,24.00
2019-04-10T12:18:55.867Z,25.70
2019-04-10T12:23:58.925Z,22.07
2019-04-10T12:29:00.952Z,20.85
2019-04-10T12:34:04.575Z,23.10
2019-04-10T12:39:08.405Z,24.00
2019-04-10T12:44:11.595Z,19.20
2019-04-10T12:49:15.054Z,19.92
2019-04-10T12:54:17.374Z,24.50
2019-04-10T12:59:19.537Z,24.63
2019-04-10T13:04:22.302Z,23.32
2019-04-10T13:09:24.460Z,25.40
2019-04-10T13:14:26.600Z,24.10
2019-04-10T13:19:29.159Z,20.12
2019-04-10T13:24:31.386Z,22.73
2019-04-10T13:29:33.762Z,22.27
2019-04-10T13:34:35.844Z,21.87
2019-04-10T13:39:39.028Z,21.80
2019-04-10T13:44:42.453Z,24.00
2019-04-10T13:49:44.631Z,20.92
2019-04-10T13:54:47.126Z,22.00
2019-04-10T13:59:49.335Z,23.25
2019-04-10T14:04:51.445Z,21.15
2019-04-10T14:09:54.451Z,23.90
2019-04-10T14:14:57.321Z,20.02
2019-04-10T14:20:00.121Z,21.42
2019-04-10T14:25:03.137Z,24.80
2019-04-10T14:30:09.163Z,22.17
2019-04-10T14:35:11.480Z,21.93
2019-04-10T14:40:14.455Z,23.12
2019-04-10T14:45:17.201Z,24.25
2019-04-10T14:50:19.772Z,23.47
2019-04-10T14:55:22.128Z,25.00
2019-04-10T15:00:37.734Z,21.57
2019-04-10T15:05:48.636Z,23.67
2019-04-10T15:10:44.004Z,22.32
2019-04-10T15:15:46.132Z,23.77
2019-04-10T15:20:49.188Z,25.20
2019-04-10T15:25:51.513Z,21.90
2019-04-10T15:30:53.742Z,24.43
2019-04-10T15:35:55.786Z,19.05
2019-04-10T15:40:58.727Z,22.62
2019-04-10T15:46:00.911Z,22.17
2019-04-10T15:51:03.621Z,22.22
2019-04-10T15:56:05.795Z,22.00
2019-04-10T16:01:11.825Z,21.30
2019-04-10T16:06:14.008Z,19.10
2019-04-10T16:11:54.344Z,24.63
2019-04-10T16:17:25.798Z,19.80
2019-04-10T16:22:31.314Z,22.55
2019-04-10T16:27:33.428Z,21.95
2019-04-10T16:32:35.437Z,20.52
2019-04-10T16:37:37.662Z,23.35
2019-04-10T16:42:41.372Z,22.98
2019-04-10T16:47:44.033Z,20.32
2019-04-10T16:52:47.371Z,21.68
2019-04-10T16:57:49.875Z,20.17
2019-04-10T17:02:52.714Z,22.67
2019-04-10T17:07:55.378Z,19.37
2019-04-10T17:12:58.261Z,21.73
2019-04-10T17:18:01.050Z,21.73
2019-04-10T17:23:04.888Z,23.00
2019-04-10T17:28:08.037Z,21.40
2019-04-10T17:33:11.057Z,21.23
2019-04-10T17:38:14.218Z,22.95
2019-04-10T17:43:16.978Z,21.15
2019-04-10T17:48:20.012Z,25.70
2019-04-10T17:53:23.139Z,23.05
2019-04-10T17:58:25.462Z,22.98
2019-04-10T18:03:40.526Z,20.20
2019-04-10T18:08:32.655Z,22.00
2019-04-10T18:13:34.861Z,22.02
2019-04-10T18:18:37.995Z,19.90
2019-04-10T18:23:40.095Z,23.57
2019-04-10T18:28:43.478Z,24.73
2019-04-10T18:33:46.858Z,21.07
2019-04-10T18:38:50.090Z,23.55
2019-04-10T18:43:53.167Z,19.27
2019-04-10T18:48:55.204Z,20.30
2019-04-10T18:53:57.657Z,21.50
2019-04-10T18:59:12.278Z,21.02
2019-04-10T19:04:20.281Z,20.27
2019-04-10T19:09:28.112Z,21.57
2019-04-10T19:14:34.843Z,22.13
2019-04-10T19:19:38.983Z,20.08
2019-04-10T19:24:41.664Z,21.17
2019-04-10T19:29:43.874Z,24.72
2019-04-10T19:34:46.153Z,25.15
2019-04-10T19:39:48.779Z,19.52
2019-04-10T19:44:51.034Z,21.95
2019-04-10T19:49:53.114Z,18.42
2019-04-10T19:54:55.527Z,18.20
2019-04-10T19:59:57.904Z,20.15
2019-04-10T20:05:01.135Z,16.52
2019-04-10T20:16:00.818Z,18.87
2019-04-10T20:21:03.805Z,22.27
2019-04-10T20:26:07.112Z,18.32
2019-04-10T20:31:15.046Z,18.02
2019-04-10T20:36:17.668Z,19.87
2019-04-10T20:41:19.663Z,17.30
2019-04-10T20:46:22.254Z,20.50
2019-04-10T20:51:24.967Z,20.50
2019-04-10T20:56:27.169Z,17.20
2019-04-10T21:01:29.484Z,19.57
2019-04-10T21:06:31.824Z,21.48
2019-04-10T21:11:33.991Z,20.17
2019-04-10T21:16:36.047Z,15.83
2019-04-10T21:21:39.095Z,18.95
2019-04-10T21:26:41.263Z,20.10
2019-04-10T21:31:59.004Z,21.70
2019-04-10T21:37:01.761Z,22.82
2019-04-10T21:42:14.765Z,17.75
2019-04-10T21:47:08.923Z,20.12
2019-04-10T21:52:11.323Z,21.20
2019-04-10T21:57:13.817Z,24.70
2019-04-10T22:02:16.089Z,22.73
2019-04-10T22:07:44.814Z,22.87
2019-04-10T22:12:49.206Z,25.05
2019-04-10T22:17:52.354Z,22.15
2019-04-10T22:22:55.503Z,24.20
2019-04-10T22:27:58.345Z,22.52
2019-04-10T22:33:00.496Z,25.97
2019-04-10T22:38:02.700Z,22.35
2019-04-10T22:43:05.444Z,24.98
2019-04-10T22:48:08.391Z,25.43
2019-04-10T22:53:10.896Z,25.60
2019-04-10T22:58:13.221Z,25.97
2019-04-10T23:03:15.821Z,25.85
2019-04-10T23:08:17.938Z,25.75
2019-04-10T23:13:20.015Z,24.60
2019-04-10T23:18:23.475Z,26.62
2019-04-10T23:23:25.716Z,26.52
2019-04-10T23:28:27.811Z,27.02
2019-04-10T23:33:30.196Z,26.23
2019-04-10T23:38:33.239Z,29.23
2019-04-10T23:43:35.703Z,32.30
2019-04-10T23:48:37.833Z,24.30
2019-04-10T23:53:40.469Z,28.20
2019-04-10T23:58:42.578Z,25.02
